Time;durP1;ratioP1;P1;durP2;ratioP2;P2;SDS_P1;SDS_P2;PMS_P1;PMS_P2;Temp;Humidity;BMP_temperature;BMP_pressure;BME280_temperature;BME280_humidity;BME280_pressure;Samples;Min_cycle;Max_cycle;Signal;HPM_P1;HPM_P2
2023/03/28 00:00:48;;;;;;;4.28;3.17;;;;;;;;;;4993181;28;20038;-86
2023/03/28 00:03:17;;;;;;;4.75;3.67;;;;;;;;;;4977052;28;20061;-89
2023/03/28 00:05:49;;;;;;;4.82;3.50;;;;;;;;;;4990705;28;20064;-88
2023/03/28 00:08:15;;;;;;;3.90;3.28;;;;;;;;;;4993228;28;20042;-88
2023/03/28 00:10:41;;;;;;;4.15;3.47;;;;;;;;;;4981084;28;20062;-88
2023/03/28 00:13:07;;;;;;;3.45;3.15;;;;;;;;;;4995805;28;20054;-86
2023/03/28 00:15:36;;;;;;;5.03;3.70;;;;;;;;;;4971756;28;20062;-86
2023/03/28 00:18:02;;;;;;;5.63;3.70;;;;;;;;;;4993823;28;20490;-86
2023/03/28 00:20:28;;;;;;;6.97;3.92;;;;;;;;;;4987783;28;20097;-89
2023/03/28 00:22:54;;;;;;;4.53;3.35;;;;;;;;;;4994379;28;20046;-86
2023/03/28 00:25:20;;;;;;;5.20;4.00;;;;;;;;;;4979117;28;20066;-87
2023/03/28 00:27:46;;;;;;;5.03;3.67;;;;;;;;;;4976374;28;20470;-87
2023/03/28 00:30:11;;;;;;;3.17;2.88;;;;;;;;;;4978813;28;20038;-86
2023/03/28 00:32:37;;;;;;;3.90;3.47;;;;;;;;;;4970478;28;20593;-87
2023/03/28 00:35:03;;;;;;;5.45;3.72;;;;;;;;;;4960139;28;20047;-86
2023/03/28 00:37:30;;;;;;;4.57;3.53;;;;;;;;;;4990557;28;20030;-87
2023/03/28 00:39:56;;;;;;;4.32;3.25;;;;;;;;;;4979607;28;20042;-87
2023/03/28 00:42:22;;;;;;;7.70;3.80;;;;;;;;;;4979280;28;20035;-87
2023/03/28 00:44:50;;;;;;;4.45;3.47;;;;;;;;;;4989612;28;20042;-86
2023/03/28 00:47:16;;;;;;;5.47;3.95;;;;;;;;;;4986462;28;20035;-88
2023/03/28 00:49:45;;;;;;;4.38;3.17;;;;;;;;;;4980708;28;20497;-87
2023/03/28 00:52:12;;;;;;;5.60;3.58;;;;;;;;;;4984509;28;20053;-89
2023/03/28 00:54:39;;;;;;;4.18;2.92;;;;;;;;;;4987672;28;20030;-86
2023/03/28 00:57:06;;;;;;;7.90;2.90;;;;;;;;;;4975613;28;20022;-89
2023/03/28 00:59:33;;;;;;;3.70;3.08;;;;;;;;;;4990356;28;20039;-89
2023/03/28 01:01:59;;;;;;;3.42;3.00;;;;;;;;;;4987345;28;20529;-86
2023/03/28 01:04:28;;;;;;;5.65;3.13;;;;;;;;;;4967434;28;20096;-86
2023/03/28 01:06:59;;;;;;;4.88;3.08;;;;;;;;;;4987388;28;20027;-88
2023/03/28 01:09:25;;;;;;;6.38;3.05;;;;;;;;;;4972931;28;20130;-88
2023/03/28 01:11:52;;;;;;;3.05;2.72;;;;;;;;;;4977921;28;20042;-89
2023/03/28 01:14:20;;;;;;;3.50;3.15;;;;;;;;;;4967884;28;20379;-87
2023/03/28 01:16:46;;;;;;;5.10;2.95;;;;;;;;;;4976231;28;20046;-87
2023/03/28 01:19:25;;;;;;;5.63;2.90;;;;;;;;;;4977459;28;20040;-87
2023/03/28 01:22:20;;;;;;;3.97;3.40;;;;;;;;;;4979318;28;20043;-87
2023/03/28 01:24:55;;;;;;;6.53;3.88;;;;;;;;;;4993565;28;20034;-87
2023/03/28 01:27:44;;;;;;;6.20;3.17;;;;;;;;;;4969633;28;20039;-88
2023/03/28 01:30:35;;;;;;;5.88;3.45;;;;;;;;;;4988284;28;20027;-89
2023/03/28 01:33:01;;;;;;;;;;;;;;;;;;4990263;28;20038;-88
2023/03/28 01:35:42;;;;;;;6.05;3.38;;;;;;;;;;4985938;28;19953;-87
2023/03/28 01:38:24;;;;;;;5.30;3.28;;;;;;;;;;4979924;28;20039;-88
2023/03/28 01:40:58;;;;;;;5.82;3.67;;;;;;;;;;4979466;28;20043;-88
2023/03/28 01:43:42;;;;;;;6.30;3.47;;;;;;;;;;4986156;28;20030;-87
2023/03/28 01:46:12;;;;;;;4.25;3.25;;;;;;;;;;4987585;28;20022;-87
2023/03/28 01:48:41;;;;;;;7.45;3.67;;;;;;;;;;4984372;28;20047;-87
2023/03/28 01:51:14;;;;;;;6.00;3.95;;;;;;;;;;4992163;28;20038;-86
2023/03/28 01:53:39;;;;;;;4.43;3.22;;;;;;;;;;4989862;28;20034;-85
2023/03/28 01:56:33;;;;;;;4.15;3.30;;;;;;;;;;4957857;28;20093;-87
2023/03/28 01:58:58;;;;;;;4.38;3.35;;;;;;;;;;4986776;28;20066;-88
2023/03/28 02:01:35;;;;;;;4.13;3.47;;;;;;;;;;4992475;28;20038;-85
2023/03/28 02:04:04;;;;;;;7.07;3.92;;;;;;;;;;4955147;28;20035;-88
2023/03/28 02:06:38;;;;;;;8.93;4.05;;;;;;;;;;4958893;28;20114;-86
2023/03/28 02:09:06;;;;;;;5.72;3.67;;;;;;;;;;4973396;28;20026;-86
2023/03/28 02:11:33;;;;;;;7.78;3.70;;;;;;;;;;4979054;28;20054;-86
2023/03/28 02:14:09;;;;;;;7.70;4.25;;;;;;;;;;4957309;28;20040;-84
2023/03/28 02:16:37;;;;;;;5.60;3.60;;;;;;;;;;4977317;28;20506;-86
2023/03/28 02:19:03;;;;;;;6.78;4.78;;;;;;;;;;4986824;28;20066;-86
2023/03/28 02:21:39;;;;;;;6.50;3.70;;;;;;;;;;4973024;28;20034;-86
2023/03/28 02:24:05;;;;;;;6.55;4.60;;;;;;;;;;4979994;28;20026;-85
2023/03/28 02:26:32;;;;;;;7.38;3.92;;;;;;;;;;4983787;28;20053;-88
2023/03/28 02:28:58;;;;;;;7.70;4.28;;;;;;;;;;4982812;28;20034;-87
2023/03/28 02:31:24;;;;;;;8.82;4.68;;;;;;;;;;4989080;28;20030;-86
2023/03/28 02:33:51;;;;;;;8.13;5.95;;;;;;;;;;4979060;28;20442;-86
2023/03/28 02:36:19;;;;;;;8.85;4.68;;;;;;;;;;4968902;28;20070;-85
2023/03/28 02:38:48;;;;;;;6.18;4.40;;;;;;;;;;4959179;28;20066;-86
2023/03/28 02:41:14;;;;;;;7.43;4.97;;;;;;;;;;4968959;28;20031;-86
2023/03/28 02:43:40;;;;;;;12.27;5.55;;;;;;;;;;4972048;28;20034;-87
2023/03/28 02:46:09;;;;;;;8.80;4.85;;;;;;;;;;4958471;28;20058;-87
2023/03/28 02:48:50;;;;;;;7.22;5.32;;;;;;;;;;4972516;28;20042;-85
2023/03/28 02:51:16;;;;;;;;;;;;;;;;;;4971593;28;20050;-84
2023/03/28 02:53:50;;;;;;;8.30;5.13;;;;;;;;;;4959439;28;19937;-84
2023/03/28 02:56:22;;;;;;;9.10;5.43;;;;;;;;;;4966229;28;20046;-83
2023/03/28 02:58:52;;;;;;;10.02;4.88;;;;;;;;;;4955671;28;20070;-84
2023/03/28 03:01:18;;;;;;;10.10;6.05;;;;;;;;;;4948752;28;20094;-85
2023/03/28 03:03:44;;;;;;;10.90;6.22;;;;;;;;;;4968871;28;20110;-84
2023/03/28 03:06:27;;;;;;;8.15;5.57;;;;;;;;;;4966558;28;20031;-84
2023/03/28 03:08:52;;;;;;;11.13;5.63;;;;;;;;;;4961325;28;20105;-84
2023/03/28 03:11:18;;;;;;;10.30;5.70;;;;;;;;;;4959033;28;20033;-83
2023/03/28 03:13:44;;;;;;;9.65;5.70;;;;;;;;;;4960608;28;20126;-84
2023/03/28 03:16:09;;;;;;;10.77;5.30;;;;;;;;;;4953452;28;20046;-83
2023/03/28 03:18:35;;;;;;;11.45;6.57;;;;;;;;;;4968021;28;20022;-83
2023/03/28 03:21:01;;;;;;;12.02;5.97;;;;;;;;;;4970164;28;20495;-84
2023/03/28 03:23:27;;;;;;;11.20;5.95;;;;;;;;;;4955264;28;20031;-85
2023/03/28 03:25:53;;;;;;;7.75;5.57;;;;;;;;;;4955147;28;20507;-85
2023/03/28 03:28:19;;;;;;;12.52;5.95;;;;;;;;;;4963606;28;20098;-85
2023/03/28 03:30:45;;;;;;;9.88;5.13;;;;;;;;;;4952549;28;20102;-83
2023/03/28 03:33:13;;;;;;;8.88;5.28;;;;;;;;;;4956934;28;20432;-90
2023/03/28 03:35:40;;;;;;;15.45;6.68;;;;;;;;;;4960779;28;20069;-88
2023/03/28 03:38:06;;;;;;;10.85;6.43;;;;;;;;;;4960680;28;20035;-91
2023/03/28 03:40:32;;;;;;;11.77;6.88;;;;;;;;;;4975184;28;20037;-89
2023/03/28 03:42:57;;;;;;;8.38;5.85;;;;;;;;;;4958601;28;20070;-92
2023/03/28 03:45:23;;;;;;;10.25;5.70;;;;;;;;;;4977921;28;20093;-91
2023/03/28 03:47:49;;;;;;;10.27;5.30;;;;;;;;;;4959194;28;20043;-89
2023/03/28 03:50:14;;;;;;;7.85;5.20;;;;;;;;;;4975128;28;20038;-88
2023/03/28 03:52:40;;;;;;;9.65;5.22;;;;;;;;;;4963736;28;20046;-90
2023/03/28 03:55:06;;;;;;;14.48;6.55;;;;;;;;;;4960059;28;20051;-88
2023/03/28 03:57:32;;;;;;;10.30;6.38;;;;;;;;;;4963685;28;20049;-90
2023/03/28 03:59:58;;;;;;;13.95;6.65;;;;;;;;;;4964267;28;20023;-88
2023/03/28 04:02:25;;;;;;;11.20;5.70;;;;;;;;;;4954412;28;20407;-91
2023/03/28 04:04:52;;;;;;;8.35;5.38;;;;;;;;;;4941303;28;20046;-89
2023/03/28 04:07:19;;;;;;;17.10;8.05;;;;;;;;;;4959644;28;20467;-88
2023/03/28 04:09:44;;;;;;;10.57;5.63;;;;;;;;;;4975617;28;20031;-90
2023/03/28 04:12:10;;;;;;;7.68;5.20;;;;;;;;;;4950701;28;20139;-89
2023/03/28 04:14:36;;;;;;;8.13;5.20;;;;;;;;;;4977786;28;20034;-89
2023/03/28 04:17:03;;;;;;;10.98;5.60;;;;;;;;;;4958208;28;20113;-89
2023/03/28 04:19:29;;;;;;;9.60;5.18;;;;;;;;;;4956110;28;20035;-91
2023/03/28 04:21:55;;;;;;;8.60;4.63;;;;;;;;;;4941560;29;20059;-91
2023/03/28 04:24:23;;;;;;;10.07;5.80;;;;;;;;;;4949023;28;20035;-90
2023/03/28 04:26:49;;;;;;;10.35;5.03;;;;;;;;;;4954995;28;20031;-90
2023/03/28 04:29:17;;;;;;;9.77;6.03;;;;;;;;;;4977850;28;20034;-90
2023/03/28 04:31:48;;;;;;;9.02;5.43;;;;;;;;;;4956782;28;20446;-92
2023/03/28 04:34:14;;;;;;;8.98;5.10;;;;;;;;;;4973221;28;20052;-91
2023/03/28 04:36:40;;;;;;;11.35;5.07;;;;;;;;;;4946941;28;20035;-90
2023/03/28 04:39:07;;;;;;;10.02;5.00;;;;;;;;;;4959152;28;20027;-92
2023/03/28 04:41:33;;;;;;;10.95;5.45;;;;;;;;;;4959696;28;20387;-90
2023/03/28 04:43:58;;;;;;;10.95;4.50;;;;;;;;;;4966087;28;20055;-91
2023/03/28 04:46:24;;;;;;;8.65;4.68;;;;;;;;;;4978753;28;20441;-88
2023/03/28 04:48:50;;;;;;;12.52;4.60;;;;;;;;;;4970436;28;20130;-90
2023/03/28 04:51:15;;;;;;;11.23;5.10;;;;;;;;;;4973165;28;20039;-89
2023/03/28 04:53:41;;;;;;;11.75;4.60;;;;;;;;;;4977034;28;20450;-89
2023/03/28 04:56:07;;;;;;;9.85;5.07;;;;;;;;;;4961213;28;20050;-89
2023/03/28 04:58:33;;;;;;;8.90;4.80;;;;;;;;;;4960945;28;20035;-90
2023/03/28 05:01:02;;;;;;;8.70;5.72;;;;;;;;;;4960424;28;20097;-90
2023/03/28 05:03:30;;;;;;;11.68;5.72;;;;;;;;;;4956027;28;20446;-89
2023/03/28 05:05:57;;;;;;;9.10;3.92;;;;;;;;;;4961234;28;20102;-90
2023/03/28 05:08:24;;;;;;;11.23;5.00;;;;;;;;;;4960370;28;20089;-92
2023/03/28 05:10:50;;;;;;;8.57;5.03;;;;;;;;;;4957338;28;20039;-89
2023/03/28 05:13:16;;;;;;;11.25;5.85;;;;;;;;;;4956322;28;20055;-88
2023/03/28 05:15:42;;;;;;;11.77;5.28;;;;;;;;;;4957629;28;20430;-88
2023/03/28 05:18:08;;;;;;;8.60;4.88;;;;;;;;;;4970694;28;20043;-91
2023/03/28 05:20:34;;;;;;;8.38;4.28;;;;;;;;;;4963014;28;20043;-89
2023/03/28 05:23:00;;;;;;;10.27;5.68;;;;;;;;;;4957214;28;20479;-89
2023/03/28 05:25:26;;;;;;;8.80;4.20;;;;;;;;;;4956953;28;20035;-89
2023/03/28 05:27:52;;;;;;;11.27;5.18;;;;;;;;;;4961667;28;20047;-88
2023/03/28 05:30:18;;;;;;;10.90;5.05;;;;;;;;;;4959931;28;20125;-90
2023/03/28 05:32:43;;;;;;;12.98;5.22;;;;;;;;;;4976223;28;20110;-89
2023/03/28 05:35:10;;;;;;;8.60;4.47;;;;;;;;;;4956584;28;20039;-88
2023/03/28 05:37:36;;;;;;;10.30;4.63;;;;;;;;;;4960908;28;20053;-88
2023/03/28 05:40:06;;;;;;;10.32;5.30;;;;;;;;;;4955311;28;20039;-89
2023/03/28 05:42:34;;;;;;;11.68;5.15;;;;;;;;;;4961061;28;20023;-90
2023/03/28 05:45:04;;;;;;;11.85;5.05;;;;;;;;;;4957289;28;20023;-90
2023/03/28 05:47:30;;;;;;;8.57;5.15;;;;;;;;;;4960938;28;20030;-89
2023/03/28 05:49:56;;;;;;;8.00;5.38;;;;;;;;;;4966844;28;20428;-90
2023/03/28 05:52:21;;;;;;;7.97;4.70;;;;;;;;;;4955231;28;20031;-89
2023/03/28 05:54:47;;;;;;;7.63;4.60;;;;;;;;;;4960111;28;20038;-89
2023/03/28 05:57:13;;;;;;;9.88;4.97;;;;;;;;;;4957275;28;20090;-90
2023/03/28 05:59:42;;;;;;;10.55;4.07;;;;;;;;;;4956515;28;20557;-90
2023/03/28 06:02:11;;;;;;;11.15;4.65;;;;;;;;;;4965912;28;20074;-89
2023/03/28 06:04:38;;;;;;;9.18;4.28;;;;;;;;;;4941699;28;20553;-90
2023/03/28 06:07:21;;;;;;;12.07;4.30;;;;;;;;;;4966802;28;20062;-88
2023/03/28 06:09:47;;;;;;;8.32;3.85;;;;;;;;;;4921207;28;20038;-89
2023/03/28 06:44:54;;;;;;;10.15;4.75;;;;;;;;;;5107945;27;20637;-86
2023/03/28 06:47:20;;;;;;;8.25;3.85;;;;;;;;;;5090878;28;20050;-89
2023/03/28 06:49:45;;;;;;;7.13;4.15;;;;;;;;;;5099553;28;20035;-86
2023/03/28 06:52:12;;;;;;;9.57;4.68;;;;;;;;;;5110151;28;20057;-90
2023/03/28 06:54:38;;;;;;;10.85;4.68;;;;;;;;;;5102709;28;20036;-90
2023/03/28 06:57:04;;;;;;;10.88;4.15;;;;;;;;;;5110114;28;20133;-91
2023/03/28 06:59:30;;;;;;;7.45;3.75;;;;;;;;;;5093151;28;20032;-89
2023/03/28 07:01:57;;;;;;;9.88;4.00;;;;;;;;;;5096357;27;20501;-88
2023/03/28 07:05:28;;;;;;;10.63;5.37;;;;;;;;;;4893809;28;2100772;-87
2023/03/28 07:07:54;;;;;;;10.57;4.40;;;;;;;;;;4996334;28;20089;-87
2023/03/28 07:10:20;;;;;;;14.38;5.03;;;;;;;;;;5002605;28;20050;-89
2023/03/28 07:12:45;;;;;;;8.63;3.88;;;;;;;;;;5012301;28;20038;-91
2023/03/28 07:15:13;;;;;;;9.68;3.70;;;;;;;;;;5031991;28;20038;-90
2023/03/28 07:17:39;;;;;;;8.52;4.30;;;;;;;;;;5007727;28;20034;-89
2023/03/28 07:20:08;;;;;;;7.50;4.60;;;;;;;;;;5000809;28;20088;-89
2023/03/28 07:23:38;;;;;;;7.72;4.03;;;;;;;;;;4974246;28;20093;-90
2023/03/28 07:27:08;;;;;;;7.20;3.42;;;;;;;;;;4985808;28;20050;-88
2023/03/28 07:30:37;;;;;;;7.75;3.45;;;;;;;;;;5006182;28;20046;-90
2023/03/28 07:34:06;;;;;;;5.85;2.80;;;;;;;;;;5006176;28;20062;-89
2023/03/28 07:37:34;;;;;;;7.43;2.97;;;;;;;;;;4992492;28;20112;-88
2023/03/28 07:41:03;;;;;;;10.70;4.30;;;;;;;;;;4999398;28;20051;-88
2023/03/28 07:44:32;;;;;;;7.25;3.47;;;;;;;;;;5001686;28;20038;-89
2023/03/28 07:48:00;;;;;;;5.07;2.75;;;;;;;;;;4991807;28;20038;-90
2023/03/28 07:51:29;;;;;;;12.07;3.47;;;;;;;;;;4981460;28;20401;-89
2023/03/28 07:54:58;;;;;;;6.57;3.08;;;;;;;;;;5006596;28;20065;-88
2023/03/28 07:58:27;;;;;;;6.50;3.45;;;;;;;;;;4990489;28;20478;-89
2023/03/28 08:01:55;;;;;;;8.00;2.92;;;;;;;;;;4981755;28;20073;-89
2023/03/28 08:05:25;;;;;;;7.30;3.22;;;;;;;;;;5007433;28;20046;-91
2023/03/28 08:08:56;;;;;;;5.80;3.00;;;;;;;;;;4988834;28;20042;-91
2023/03/28 08:12:24;;;;;;;9.32;3.72;;;;;;;;;;4995431;28;20046;-89
2023/03/28 08:15:53;;;;;;;9.43;3.63;;;;;;;;;;5038027;28;20034;-88
2023/03/28 08:19:21;;;;;;;7.25;2.50;;;;;;;;;;4994871;28;20050;-89
2023/03/28 08:22:50;;;;;;;7.07;2.35;;;;;;;;;;4977616;28;20042;-88
2023/03/28 08:26:19;;;;;;;4.47;1.60;;;;;;;;;;4978159;28;20058;-90
2023/03/28 08:29:47;;;;;;;5.22;2.63;;;;;;;;;;4987530;28;20046;-90
2023/03/28 08:33:16;;;;;;;6.85;2.72;;;;;;;;;;4995982;28;20055;-89
2023/03/28 08:36:46;;;;;;;6.13;2.40;;;;;;;;;;4995713;28;20403;-88
2023/03/28 08:40:15;;;;;;;7.47;3.08;;;;;;;;;;4987874;28;20058;-89
2023/03/28 08:43:49;;;;;;;9.18;2.38;;;;;;;;;;4984837;28;20057;-89
2023/03/28 08:47:19;;;;;;;6.68;1.95;;;;;;;;;;4986267;28;20045;-90
2023/03/28 08:51:05;;;;;;;8.45;2.50;;;;;;;;;;4958470;28;20039;-89
2023/03/28 12:51:49;;;;;;;;;;;;;;;;;;4967989;27;154761;-84
2023/03/28 12:54:14;;;;;;;;;;;;;;;;;;4977771;27;2372539;-84
2023/03/28 12:56:40;;;;;;;;;;;;;;;;;;4964726;28;19924;-83
2023/03/28 12:59:05;;;;;;;;;;;;;;;;;;5059147;28;19921;-83
2023/03/28 13:08:30;;;;;;;14.65;5.25;;;;;;;;;;4940280;27;20540;-78
2023/03/28 13:27:31;;;;;;;25.15;11.38;;;;;;;21.56;35.63;99137.38;4734262;28;21216;-85
2023/03/28 13:32:03;;;;;;;23.73;9.43;;;;;;;20.08;39.34;99136.50;4853556;28;20730;-85
2023/03/28 13:42:58;;;;;;;16.45;6.43;;;;;;;27.31;25.69;98998.97;4868800;28;20446;-82
2023/03/28 13:53:37;;;;;;;13.27;5.78;;;;;;;22.10;35.20;99006.03;6356007;19;21428;-81
2023/03/28 13:58:36;;;;;;;11.55;4.78;;;;;;;21.54;36.22;99015.69;6364208;19;20514;-80
2023/03/28 14:02:45;;;;;;;12.48;4.43;;;;;;;21.24;36.64;99012.34;6473845;19;21079;-81
2023/03/28 14:19:44;;;;;;;27.83;11.48;;;;;;;21.14;36.97;99010.81;6627486;19;20496;-81
2023/03/28 14:24:34;;;;;;;15.10;5.40;;;;;;;21.25;36.31;99006.00;6574741;19;359506;-79
2023/03/28 14:27:12;;;;;;;13.50;5.65;;;;;;;21.31;36.51;99002.63;6384865;19;20019;-79
2023/03/28 14:31:39;;;;;;;14.32;5.57;;;;;;;21.33;36.76;99003.25;6400745;19;20878;-79
2023/03/28 14:34:29;;;;;;;11.93;4.07;;;;;;;21.35;36.88;99003.84;7326156;19;20011;-80
2023/03/28 14:37:05;;;;;;;9.20;4.28;;;;;;;21.39;36.81;99002.47;7420828;19;20026;-79
2023/03/28 14:39:36;;;;;;;8.27;3.80;;;;;;;21.45;37.04;98995.59;7392601;19;20010;-80
2023/03/28 14:42:45;;;;;;;13.40;4.97;;;;;;;21.48;37.33;98992.59;7421955;19;20757;-79
2023/03/28 14:45:13;;;;;;;9.80;4.10;;;;;;;21.47;37.31;99002.38;7424497;19;20052;-79
2023/03/28 14:47:41;;;;;;;8.00;3.72;;;;;;;21.47;37.72;98998.88;7346490;19;20014;-77
2023/03/28 14:53:26;;;;;;;6.95;3.30;;;;;;;21.46;37.80;98987.47;6277909;19;20728;-81
2023/03/28 14:56:27;;;;;;;7.80;3.20;;;;;;;21.48;37.78;98989.94;6321532;19;20504;-82
2023/03/28 14:59:03;;;;;;;5.97;3.17;;;;;;;21.49;38.07;98989.75;6358512;19;20019;-86
2023/03/28 15:01:30;;;;;;;8.82;3.88;;;;;;;21.51;38.30;98989.56;6351685;19;20077;-87
2023/03/28 15:04:00;;;;;;;11.55;5.15;;;;;;;21.53;37.77;98981.44;6842753;19;20462;-83
2023/03/28 15:06:28;;;;;;;17.08;7.80;;;;;;;21.54;37.05;98975.94;7424666;19;20016;-83
2023/03/28 15:37:21;;;;;;;20.77;6.97;;;;;;;21.41;36.30;98928.09;6444563;19;21064;-85
2023/03/28 15:39:49;;;;;;;16.40;6.28;;;;;;;21.22;37.21;98927.75;7279548;19;20021;-86
2023/03/28 15:49:11;;;;;;;11.88;4.60;;;;;;;21.05;37.23;98923.75;7303698;19;20753;-80
2023/03/28 15:53:35;;;;;;;11.38;4.75;;;;;;;20.95;36.88;98918.78;7191443;19;21518;-77
2023/03/28 17:28:06;;;;;;;26.70;12.02;;;;;;;21.16;40.17;98872.09;7362190;19;21346;-77
2023/03/28 17:30:32;;;;;;;25.13;12.52;;;;;;;21.16;40.56;98866.78;7305853;19;20339;-79
2023/03/28 17:39:15;;;;;;;23.35;11.77;;;;;;;21.19;40.61;98861.13;6756560;19;20846;-80
2023/03/28 17:41:42;;;;;;;21.33;11.73;;;;;;;21.11;40.94;98867.34;6353762;19;20027;-79
2023/03/28 17:44:08;;;;;;;23.13;12.35;;;;;;;21.01;41.23;98856.28;7028198;19;20018;-77
